createdAt,value
2018-11-25T05:06:33.976Z,35.80
2018-11-25T05:11:38.651Z,35.97
2018-11-25T05:16:43.357Z,40.27
2018-11-25T05:27:29.612Z,46.30
2018-11-25T05:38:10.195Z,44.97
2018-11-25T05:43:15.443Z,51.50
2018-11-25T05:48:29.171Z,54.87
2018-11-25T05:53:34.022Z,51.60
2018-11-25T05:58:38.731Z,52.50
2018-11-25T06:03:43.445Z,51.37
2018-11-25T06:08:48.223Z,55.37
2018-11-25T06:13:53.250Z,61.95
2018-11-25T06:18:57.968Z,59.42
2018-11-25T06:24:03.316Z,56.30
2018-11-25T06:29:08.131Z,62.60
2018-11-25T06:34:12.843Z,63.73
2018-11-25T06:39:17.656Z,63.87
2018-11-25T06:44:22.493Z,59.47
2018-11-25T06:49:27.294Z,62.77
2018-11-25T06:54:35.810Z,69.73
2018-11-25T06:59:44.489Z,62.33
2018-11-25T07:04:51.105Z,68.63
2018-11-25T07:09:56.708Z,65.03
2018-11-25T07:15:03.327Z,68.70
2018-11-25T07:20:11.546Z,69.60
2018-11-25T07:25:21.399Z,61.93
2018-11-25T07:30:29.064Z,59.10
2018-11-25T07:35:35.327Z,49.93
2018-11-25T07:40:42.260Z,52.27
2018-11-25T07:45:49.477Z,53.87
2018-11-25T07:50:55.873Z,48.87
2018-11-25T07:56:02.262Z,51.05
2018-11-25T08:01:08.426Z,57.57
2018-11-25T08:06:21.700Z,48.03
2018-11-25T08:11:29.526Z,53.73
2018-11-25T08:16:36.873Z,51.50
2018-11-25T08:21:52.750Z,57.43
2018-11-25T08:27:02.533Z,51.30
2018-11-25T08:32:13.632Z,46.43
2018-11-25T08:37:20.932Z,52.17
2018-11-25T08:42:28.544Z,47.90
2018-11-25T08:48:01.768Z,52.27
2018-11-25T08:53:06.781Z,51.10
2018-11-25T08:58:15.780Z,46.13
2018-11-25T09:03:20.515Z,50.17
2018-11-25T09:08:25.360Z,51.03
2018-11-25T09:13:30.103Z,49.97
2018-11-25T09:18:34.787Z,44.40
2018-11-25T09:23:39.473Z,41.23
2018-11-25T09:28:44.180Z,39.40
2018-11-25T09:33:48.870Z,39.95
2018-11-25T09:38:53.566Z,38.97
2018-11-25T09:43:58.281Z,41.18
2018-11-25T09:49:03.096Z,44.40
2018-11-25T09:54:07.845Z,42.40
2018-11-25T09:59:12.480Z,41.35
2018-11-25T10:04:17.143Z,41.80
2018-11-25T10:09:21.857Z,42.15
2018-11-25T10:14:26.598Z,41.58
2018-11-25T10:19:31.351Z,39.08
2018-11-25T10:24:36.011Z,39.13
2018-11-25T10:29:40.748Z,41.97
2018-11-25T10:34:45.431Z,43.50
2018-11-25T10:39:50.103Z,32.30
2018-11-25T10:44:54.733Z,33.40
2018-11-25T10:49:59.418Z,37.05
2018-11-25T10:55:04.539Z,37.13
2018-11-25T11:00:20.761Z,31.70
2018-11-25T11:05:30.796Z,35.17
2018-11-25T11:10:35.448Z,36.38
2018-11-25T11:15:40.148Z,32.80
2018-11-25T11:20:44.825Z,33.88
2018-11-25T11:25:49.462Z,37.57
2018-11-25T11:30:54.113Z,36.70
2018-11-25T11:35:58.774Z,34.70
2018-11-25T11:41:03.475Z,38.87
2018-11-25T11:46:08.123Z,36.17
2018-11-25T11:51:12.750Z,41.35
2018-11-25T11:56:17.516Z,34.77
2018-11-25T12:01:22.268Z,33.30
2018-11-25T12:06:26.970Z,31.87
2018-11-25T12:11:31.699Z,35.95
2018-11-25T12:16:36.341Z,36.95
2018-11-25T12:21:41.019Z,46.30
2018-11-25T12:26:45.686Z,51.97
2018-11-25T12:31:51.343Z,50.78
2018-11-25T12:36:56.007Z,49.55
2018-11-25T12:42:00.726Z,46.03
2018-11-25T12:47:05.604Z,50.85
2018-11-25T12:52:10.260Z,53.57
2018-11-25T12:57:14.927Z,46.58
2018-11-25T13:02:19.582Z,49.58
2018-11-25T13:07:24.249Z,48.65
2018-11-25T13:12:29.196Z,51.77
2018-11-25T13:17:33.849Z,49.20
2018-11-25T13:22:38.824Z,50.73
2018-11-25T13:27:43.602Z,61.53
2018-11-25T13:32:49.111Z,56.83
2018-11-25T13:37:53.768Z,60.57
2018-11-25T13:42:58.406Z,66.47
2018-11-25T13:48:03.741Z,69.93
2018-11-25T13:53:08.386Z,69.58
2018-11-25T13:58:13.507Z,66.03
2018-11-25T14:03:20.856Z,68.20
2018-11-25T14:08:25.671Z,70.13
2018-11-25T14:13:30.327Z,62.33
2018-11-25T14:18:35.181Z,74.87
2018-11-25T14:23:39.796Z,63.87
2018-11-25T14:28:44.923Z,60.20
2018-11-25T14:33:49.634Z,64.10
2018-11-25T14:38:54.354Z,62.30
2018-11-25T14:43:59.013Z,59.27
2018-11-25T14:49:03.661Z,64.62
2018-11-25T14:54:08.343Z,68.37
2018-11-25T14:59:12.988Z,67.60
2018-11-25T15:04:17.683Z,72.47
2018-11-25T15:09:22.355Z,73.05
2018-11-25T15:14:27.114Z,63.90
2018-11-25T15:19:32.154Z,73.53
2018-11-25T15:24:36.871Z,76.73
2018-11-25T15:29:41.718Z,79.60
2018-11-25T15:34:46.410Z,69.42
2018-11-25T15:39:51.215Z,74.45
2018-11-25T15:44:55.904Z,71.57
2018-11-25T15:50:00.611Z,71.17
2018-11-25T15:55:08.959Z,75.93
2018-11-25T16:00:18.988Z,69.17
2018-11-25T16:05:26.307Z,69.17
2018-11-25T16:10:30.970Z,65.80
2018-11-25T16:15:35.693Z,68.47
2018-11-25T16:20:40.331Z,65.92
2018-11-25T16:25:47.831Z,65.80
2018-11-25T16:30:52.530Z,67.47
2018-11-25T16:35:57.219Z,64.07
2018-11-25T16:41:01.893Z,64.65
2018-11-25T16:46:06.591Z,63.33
2018-11-25T16:51:11.518Z,64.00
2018-11-25T16:56:16.314Z,61.42
2018-11-25T17:01:21.519Z,63.78
2018-11-25T17:06:26.467Z,67.53
2018-11-25T17:11:31.389Z,63.57
2018-11-25T17:16:36.040Z,63.03
2018-11-25T17:21:40.696Z,62.87
2018-11-25T17:26:45.455Z,58.90
2018-11-25T17:31:50.169Z,57.62
2018-11-25T17:36:54.850Z,61.60
2018-11-25T17:41:59.526Z,57.38
2018-11-25T17:47:04.267Z,56.92
2018-11-25T17:52:08.953Z,55.35
2018-11-25T17:57:13.648Z,61.33
2018-11-25T18:02:18.401Z,60.95
2018-11-25T18:07:23.060Z,61.87
2018-11-25T18:12:28.112Z,64.70
2018-11-25T18:17:32.748Z,70.47
2018-11-25T18:22:40.410Z,75.78
2018-11-25T18:27:45.147Z,93.22
2018-11-25T18:32:49.895Z,87.70
2018-11-25T18:37:54.762Z,79.65
2018-11-25T18:42:59.443Z,82.90
2018-11-25T18:48:04.263Z,91.63
2018-11-25T18:53:09.810Z,83.25
2018-11-25T18:58:14.466Z,88.63
2018-11-25T19:03:19.151Z,84.62
2018-11-25T19:08:23.816Z,91.15
2018-11-25T19:13:28.478Z,98.78
2018-11-25T19:18:33.148Z,95.15
2018-11-25T19:23:37.830Z,94.13
2018-11-25T19:28:42.502Z,101.85
2018-11-25T19:33:47.222Z,91.90
2018-11-25T19:38:51.882Z,95.15
2018-11-25T19:43:56.527Z,104.23
2018-11-25T19:49:01.201Z,93.80
2018-11-25T19:54:05.902Z,86.65
2018-11-25T19:59:10.618Z,93.95
2018-11-25T20:04:15.278Z,91.73
2018-11-25T20:09:19.954Z,87.05
2018-11-25T20:14:24.630Z,95.65
2018-11-25T20:19:29.307Z,101.92
2018-11-25T20:24:33.980Z,99.65
2018-11-25T20:29:38.679Z,104.17
2018-11-25T20:34:43.341Z,105.87
2018-11-25T20:39:48.037Z,103.38
2018-11-25T20:44:52.735Z,106.03
2018-11-25T20:49:57.436Z,106.10
2018-11-25T20:55:02.131Z,108.97
2018-11-25T21:00:15.203Z,106.20
2018-11-25T21:05:19.858Z,106.35
2018-11-25T21:10:26.065Z,103.53
2018-11-25T21:15:29.204Z,115.45
2018-11-25T21:20:33.951Z,101.67
2018-11-25T21:25:38.678Z,102.42
2018-11-25T21:30:43.335Z,98.45
2018-11-25T21:35:48.035Z,99.40
2018-11-25T21:40:52.732Z,102.78
2018-11-25T21:45:57.786Z,102.45
2018-11-25T21:51:02.413Z,88.58
2018-11-25T21:56:07.055Z,98.20
2018-11-25T22:01:11.756Z,109.77
2018-11-25T22:06:16.414Z,98.52
2018-11-25T22:11:21.082Z,95.85
2018-11-25T22:16:25.858Z,92.92
2018-11-25T22:21:30.499Z,93.03
2018-11-25T22:26:35.162Z,100.35
2018-11-25T22:31:39.813Z,97.12
2018-11-25T22:36:44.483Z,89.03
2018-11-25T22:41:49.171Z,93.03
2018-11-25T22:46:53.824Z,90.17
2018-11-25T22:51:58.479Z,98.47
2018-11-25T22:57:03.133Z,81.80
2018-11-25T23:02:07.946Z,90.47
2018-11-25T23:07:12.591Z,93.42
2018-11-25T23:12:17.254Z,88.62
2018-11-25T23:17:21.929Z,84.90
2018-11-25T23:22:26.596Z,86.50
2018-11-25T23:27:31.266Z,88.57
2018-11-25T23:32:35.904Z,81.72
2018-11-25T23:37:40.554Z,86.47
2018-11-25T23:42:45.210Z,87.02
2018-11-25T23:47:49.865Z,85.83
2018-11-25T23:52:54.494Z,81.60
2018-11-25T23:57:59.140Z,87.82
